Cap Isabel — VRGA2 — position and weather

sailwx.info

Track history (hours):
 
Tides and Currents Weather Stations Pressure Air Temp Water Temp Dewpoint Dewpoint Depression Visibility Wind Speed Wind Dir Waves Ship Positions

Cap Isabel

Last reported at 2015-Mar-30 22:31 UTC. Time now 2015-Mar-30 23:06 UTC.
Position N 40°40' W 074°05'.

Length 264 m; draft 10 m.

Type: Ship (hazmat cat C). MMSI: 477639500.

Date/timePositionNaut miles runAvg speedWind from/ knotsBaromVisibWave heightAir tempDewpointWater temp
2015-Mar-30 22:31N 40°40' W 074°05'0 0.2
2015-Mar-30 21:31N 40°40' W 074°05'0 0.0
2015-Mar-30 20:31N 40°40' W 074°05'0 0.0
2015-Mar-30 19:31N 40°40' W 074°05'0 0.0
2015-Mar-30 18:31N 40°40' W 074°05'0 0.0
2015-Mar-30 17:31N 40°40' W 074°05'0 0.0
2015-Mar-30 16:31N 40°40' W 074°05'0 0.0
2015-Mar-30 15:33N 40°40' W 074°05'8 8.2
2015-Mar-30 14:33N 40°33' W 074°01'1111.2
2015-Mar-30 13:33N 40°27' W 073°48'6 5.8
2015-Mar-30 12:30N 40°21' W 073°46'5 3.9
2015-Mar-30 11:08N 40°16' W 073°46'5 8.9
2015-Mar-30 10:31N 40°11' W 073°45'1414.4
2015-Mar-30 09:33N 39°57' W 073°42'1615.7
2015-Mar-30 08:32N 39°41' W 073°41'1716.7
2015-Mar-30 07:32N 39°24' W 073°44'86217.4
2015-Mar-28 06:05N 26°05' W 080°07'1 0.1
2015-Mar-27 22:19N 26°04' W 080°07'0 0.3
2015-Mar-27 21:33N 26°05' W 080°07'5 5.0
2015-Mar-27 20:33N 26°05' W 080°01'8 8.0
2015-Mar-27 19:33N 25°58' W 079°59'1717.3
2015-Mar-27 18:33N 25°41' W 079°55'1312.9
2015-Mar-27 17:33N 25°28' W 079°52'  
Track history (hours):
 
Tides and Currents Weather Stations Pressure Air Temp Water Temp Dewpoint Dewpoint Depression Visibility Wind Speed Wind Dir Waves Ship Positions

Cap Isabel

Last reported at 2015-Mar-30 22:31 UTC. Time now 2015-Mar-30 23:06 UTC.
Position N 40°40' W 074°05'.

Length 264 m; draft 10 m.

Type: Ship (hazmat cat C). MMSI: 477639500.

Date/timePositionNaut miles runAvg speedWind from/ knotsBaromVisibWave heightAir tempDewpointWater temp
2015-Mar-30 22:31N 40°40' W 074°05'0 0.2
2015-Mar-30 21:31N 40°40' W 074°05'0 0.0
2015-Mar-30 20:31N 40°40' W 074°05'0 0.0
2015-Mar-30 19:31N 40°40' W 074°05'0 0.0
2015-Mar-30 18:31N 40°40' W 074°05'0 0.0
2015-Mar-30 17:31N 40°40' W 074°05'0 0.0
2015-Mar-30 16:31N 40°40' W 074°05'0 0.0
2015-Mar-30 15:33N 40°40' W 074°05'8 8.2
2015-Mar-30 14:33N 40°33' W 074°01'1111.2
2015-Mar-30 13:33N 40°27' W 073°48'6 5.8
2015-Mar-30 12:30N 40°21' W 073°46'5 3.9
2015-Mar-30 11:08N 40°16' W 073°46'5 8.9
2015-Mar-30 10:31N 40°11' W 073°45'1414.4
2015-Mar-30 09:33N 39°57' W 073°42'1615.7
2015-Mar-30 08:32N 39°41' W 073°41'1716.7
2015-Mar-30 07:32N 39°24' W 073°44'86217.4
2015-Mar-28 06:05N 26°05' W 080°07'1 0.1
2015-Mar-27 22:19N 26°04' W 080°07'0 0.3
2015-Mar-27 21:33N 26°05' W 080°07'5 5.0
2015-Mar-27 20:33N 26°05' W 080°01'8 8.0
2015-Mar-27 19:33N 25°58' W 079°59'1717.3
2015-Mar-27 18:33N 25°41' W 079°55'1312.9
2015-Mar-27 17:33N 25°28' W 079°52'  

Dump ship's entire track history